Time;durP1;ratioP1;P1;durP2;ratioP2;P2;SDS_P1;SDS_P2;PMS_P1;PMS_P2;Temp;Humidity;BMP_temperature;BMP_pressure;BME280_temperature;BME280_humidity;BME280_pressure;Samples;Min_cycle;Max_cycle;Signal;HPM_P1;HPM_P2
2023/10/07 00:00:47;;;;;;;8.18;2.85;;;16.40;93.30;;;;;;4999261;28;20097;-69
2023/10/07 00:03:18;;;;;;;9.32;3.70;;;16.50;93.20;;;;;;5006969;28;20125;-70
2023/10/07 00:05:46;;;;;;;9.20;2.88;;;16.40;93.30;;;;;;5005915;28;20030;-69
2023/10/07 00:08:21;;;;;;;12.05;3.03;;;16.50;93.10;;;;;;5010576;28;20045;-69
2023/10/07 00:10:49;;;;;;;10.30;2.88;;;16.50;93.20;;;;;;5007449;28;20030;-68
2023/10/07 00:13:17;;;;;;;9.07;3.15;;;16.60;93.00;;;;;;5005815;28;20455;-71
2023/10/07 00:15:43;;;;;;;4.65;2.33;;;16.50;93.20;;;;;;5013753;28;20030;-70
2023/10/07 00:18:13;;;;;;;11.48;2.78;;;16.50;93.70;;;;;;5011312;28;20061;-69
2023/10/07 00:20:50;;;;;;;8.35;2.88;;;16.40;94.20;;;;;;5008595;28;20026;-69
2023/10/07 00:23:20;;;;;;;12.32;3.20;;;16.30;94.70;;;;;;5003856;28;20038;-69
2023/10/07 00:25:50;;;;;;;10.82;3.20;;;16.30;94.90;;;;;;5006125;28;20038;-68
2023/10/07 00:28:31;;;;;;;11.00;3.08;;;16.20;95.60;;;;;;4998230;28;20045;-69
2023/10/07 00:31:03;;;;;;;9.93;3.50;;;16.00;96.10;;;;;;5010915;28;20018;-68
2023/10/07 00:36:21;;;;;;;8.43;2.95;;;16.00;96.70;;;;;;5003166;28;20088;-70
2023/10/07 00:38:46;;;;;;;10.57;3.92;;;16.00;96.80;;;;;;5007514;28;20030;-69
2023/10/07 00:41:18;;;;;;;12.20;3.30;;;15.90;97.00;;;;;;5003394;28;20619;-69
2023/10/07 00:43:44;;;;;;;9.70;3.85;;;15.80;97.40;;;;;;5007707;28;20030;-71
2023/10/07 00:48:47;;;;;;;10.07;3.97;;;15.80;97.70;;;;;;5008024;28;20030;-69
2023/10/07 00:51:17;;;;;;;9.65;4.25;;;15.70;97.90;;;;;;5010459;28;20025;-70
2023/10/07 00:53:52;;;;;;;12.43;4.32;;;15.70;98.10;;;;;;5017390;28;20402;-69
2023/10/07 00:56:19;;;;;;;7.72;4.22;;;15.70;98.30;;;;;;4996838;28;20182;-69
2023/10/07 00:58:47;;;;;;;8.82;4.43;;;15.70;98.30;;;;;;5003273;28;20495;-70
2023/10/07 01:01:13;;;;;;;9.88;4.63;;;15.70;98.30;;;;;;5018964;28;20036;-69
2023/10/07 01:03:48;;;;;;;13.75;4.38;;;15.60;98.40;;;;;;5006753;28;20072;-69
2023/10/07 01:06:31;;;;;;;10.85;4.13;;;15.60;98.60;;;;;;5009144;28;20459;-69
2023/10/07 01:09:07;;;;;;;16.02;5.15;;;15.60;98.70;;;;;;4997608;28;20056;-69
2023/10/07 01:11:37;;;;;;;12.82;5.35;;;15.50;98.90;;;;;;5001638;28;20030;-69
2023/10/07 01:14:05;;;;;;;10.88;4.97;;;15.50;99.00;;;;;;4995332;28;20033;-69
2023/10/07 01:16:40;;;;;;;12.13;5.18;;;15.50;99.20;;;;;;5008697;28;20033;-69
2023/10/07 01:21:39;;;;;;;11.20;5.47;;;15.40;99.40;;;;;;5004914;28;20034;-68
2023/10/07 01:24:06;;;;;;;14.87;6.10;;;15.30;99.50;;;;;;4998514;28;20770;-69
2023/10/07 01:26:36;;;;;;;12.32;5.78;;;15.30;99.60;;;;;;5005130;28;20312;-70
2023/10/07 01:29:20;;;;;;;13.07;6.25;;;15.30;99.70;;;;;;4997614;28;20045;-69
2023/10/07 01:32:12;;;;;;;12.68;6.78;;;15.30;99.80;;;;;;5010733;28;20041;-70
2023/10/07 01:34:37;;;;;;;15.00;6.72;;;15.30;99.80;;;;;;5009177;28;20053;-69
2023/10/07 01:37:04;;;;;;;15.25;7.03;;;15.30;99.90;;;;;;5011321;28;20453;-69
2023/10/07 01:39:40;;;;;;;14.05;6.82;;;15.20;99.90;;;;;;4999752;28;20381;-70
2023/10/07 01:42:37;;;;;;;12.63;6.93;;;15.20;99.90;;;;;;5006818;28;20489;-70
2023/10/07 01:45:22;;;;;;;21.08;7.45;;;15.20;99.90;;;;;;5008417;28;20026;-69
2023/10/07 01:47:49;;;;;;;15.93;7.72;;;15.30;99.90;;;;;;5010157;28;20046;-69
2023/10/07 01:50:18;;;;;;;17.70;7.45;;;15.20;99.90;;;;;;5009546;28;20124;-69
2023/10/07 01:52:48;;;;;;;16.50;7.88;;;15.30;99.90;;;;;;5008828;28;20033;-71
2023/10/07 01:55:14;;;;;;;10.65;6.70;;;15.30;99.90;;;;;;4998147;28;20038;-69
2023/10/07 01:57:41;;;;;;;13.35;8.25;;;15.20;99.90;;;;;;5000871;28;20053;-71
2023/10/07 02:00:08;;;;;;;19.50;8.13;;;15.20;99.90;;;;;;5002983;28;20024;-72
2023/10/07 02:02:42;;;;;;;14.77;6.95;;;15.20;99.90;;;;;;5011440;28;20108;-70
2023/10/07 02:05:11;;;;;;;13.27;8.00;;;15.20;99.90;;;;;;5012138;28;20048;-70
2023/10/07 02:07:37;;;;;;;16.38;7.55;;;15.20;99.90;;;;;;5013720;28;20021;-70
2023/10/07 02:10:03;;;;;;;18.35;8.00;;;15.20;99.90;;;;;;5008507;28;20034;-70
2023/10/07 02:12:32;;;;;;;15.02;8.48;;;15.20;99.90;;;;;;5006127;28;20581;-70
2023/10/07 02:15:03;;;;;;;17.15;7.80;;;15.20;99.90;;;;;;5005516;28;20441;-70
2023/10/07 02:17:28;;;;;;;17.73;7.82;;;15.10;99.90;;;;;;5008669;28;20308;-70
2023/10/07 02:19:55;;;;;;;16.88;7.95;;;15.10;99.90;;;;;;5009261;28;20049;-71
2023/10/07 02:22:22;;;;;;;15.02;7.97;;;15.10;99.90;;;;;;5011386;28;20113;-70
2023/10/07 02:25:02;;;;;;;13.73;8.23;;;15.10;99.90;;;;;;5005226;28;20104;-70
2023/10/07 02:27:28;;;;;;;16.75;8.68;;;15.10;99.90;;;;;;5011401;28;20526;-69
2023/10/07 02:29:57;;;;;;;17.48;8.60;;;15.10;99.90;;;;;;5008314;28;20398;-71
2023/10/07 02:32:23;;;;;;;12.35;8.23;;;15.10;99.90;;;;;;5010523;28;20355;-71
2023/10/07 02:34:51;;;;;;;12.68;8.30;;;15.10;99.90;;;;;;5018344;28;20049;-70
2023/10/07 02:37:18;;;;;;;16.25;8.82;;;15.00;99.90;;;;;;5011768;28;20030;-69
2023/10/07 02:39:47;;;;;;;15.52;8.00;;;15.10;99.90;;;;;;5010185;28;20038;-70
2023/10/07 02:42:30;;;;;;;14.60;7.80;;;15.00;99.90;;;;;;5008429;28;20031;-70
2023/10/07 02:45:01;;;;;;;15.07;8.63;;;15.00;99.90;;;;;;5009226;28;20437;-70
2023/10/07 02:47:32;;;;;;;17.08;9.25;;;15.00;99.90;;;;;;5009185;28;20176;-70
2023/10/07 02:50:01;;;;;;;17.10;8.75;;;15.00;99.90;;;;;;5005200;28;20038;-70
2023/10/07 02:52:34;;;;;;;15.77;8.90;;;15.00;99.90;;;;;;5004153;28;20029;-70
2023/10/07 02:57:55;;;;;;;18.20;8.27;;;15.00;99.90;;;;;;5006801;28;20181;-70
2023/10/07 03:00:35;;;;;;;21.23;9.23;;;15.00;99.90;;;;;;5024610;28;20072;-70
2023/10/07 03:05:37;;;;;;;14.90;9.70;;;15.00;99.90;;;;;;5012134;28;20092;-70
2023/10/07 03:08:02;;;;;;;15.15;9.27;;;15.00;99.90;;;;;;5007850;28;20057;-70
2023/10/07 03:10:37;;;;;;;17.88;8.50;;;15.00;99.90;;;;;;5012613;28;20498;-70
2023/10/07 03:13:03;;;;;;;13.25;8.98;;;15.00;99.90;;;;;;5005479;28;20418;-71
2023/10/07 03:18:01;;;;;;;17.83;9.65;;;15.00;99.90;;;;;;5010512;28;20080;-71
2023/10/07 03:20:31;;;;;;;15.35;9.63;;;15.00;99.90;;;;;;5009713;28;20040;-70
2023/10/07 03:23:17;;;;;;;17.35;10.05;;;15.00;99.90;;;;;;5009423;28;20450;-71
2023/10/07 03:28:19;;;;;;;19.83;11.18;;;15.00;99.90;;;;;;4997007;28;20389;-71
2023/10/07 03:30:51;;;;;;;17.02;10.75;;;15.00;99.90;;;;;;5012078;28;20038;-71
2023/10/07 03:34:07;;;;;;;21.38;10.65;;;15.00;99.90;;;;;;5008550;28;20619;-70
2023/10/07 03:41:35;;;;;;;19.20;10.00;;;15.00;99.90;;;;;;5010338;28;20541;-70
2023/10/07 03:44:01;;;;;;;17.05;11.02;;;15.00;99.90;;;;;;5007273;28;20040;-71
2023/10/07 03:46:27;;;;;;;16.45;10.32;;;15.00;99.90;;;;;;5013182;28;20017;-73
2023/10/07 03:48:53;;;;;;;18.92;10.18;;;15.00;99.90;;;;;;5009738;28;20030;-70
2023/10/07 03:51:22;;;;;;;17.38;10.40;;;15.00;99.90;;;;;;5010279;28;20056;-71
2023/10/07 03:53:49;;;;;;;18.85;10.02;;;15.00;99.90;;;;;;5004651;28;20058;-71
2023/10/07 03:56:14;;;;;;;14.50;9.43;;;15.00;99.90;;;;;;5007933;28;20101;-71
2023/10/07 03:58:43;;;;;;;16.42;10.48;;;15.00;99.90;;;;;;5002602;28;20038;-72
2023/10/07 04:01:16;;;;;;;17.42;9.13;;;15.00;99.90;;;;;;5004752;28;20038;-70
2023/10/07 04:03:52;;;;;;;13.98;8.82;;;15.00;99.90;;;;;;4998927;28;21526;-73
2023/10/07 04:06:21;;;;;;;13.95;8.30;;;15.00;99.90;;;;;;5009281;28;20084;-70
2023/10/07 04:08:53;;;;;;;17.58;8.70;;;15.00;99.90;;;;;;5012010;28;20171;-71
2023/10/07 04:11:25;;;;;;;15.95;8.43;;;15.00;99.90;;;;;;5006004;28;20038;-70
2023/10/07 04:13:53;;;;;;;12.57;8.23;;;15.10;99.90;;;;;;5012153;28;20038;-71
2023/10/07 04:16:27;;;;;;;13.27;8.90;;;15.00;99.90;;;;;;5010202;28;20049;-70
2023/10/07 04:19:06;;;;;;;13.15;7.28;;;15.10;99.90;;;;;;5010714;28;20469;-71
2023/10/07 04:21:39;;;;;;;11.77;8.82;;;15.10;99.90;;;;;;5005329;28;20065;-70
2023/10/07 04:24:11;;;;;;;16.98;8.48;;;15.10;99.90;;;;;;5008556;28;20034;-71
2023/10/07 04:26:51;;;;;;;12.75;8.60;;;15.10;99.90;;;;;;5010837;28;20049;-67
2023/10/07 04:29:18;;;;;;;12.90;7.87;;;15.10;99.90;;;;;;5005545;28;20121;-68
2023/10/07 04:31:51;;;;;;;12.85;8.30;;;15.10;99.90;;;;;;5008799;28;20041;-67
2023/10/07 04:34:26;;;;;;;13.73;7.53;;;15.10;99.90;;;;;;5001246;28;20026;-69
2023/10/07 04:37:14;;;;;;;11.52;8.18;;;15.10;99.90;;;;;;5007297;28;20026;-67
2023/10/07 04:39:38;;;;;;;10.40;7.20;;;15.20;99.90;;;;;;5010129;28;20121;-67
2023/10/07 04:42:07;;;;;;;12.05;7.10;;;15.20;99.90;;;;;;5007997;28;20034;-68
2023/10/07 04:45:16;;;;;;;11.30;7.40;;;15.20;99.90;;;;;;5004861;28;20064;-68
2023/10/07 04:47:38;;;;;;;10.23;6.65;;;15.20;99.90;;;;;;5010819;28;20399;-68
2023/10/07 04:52:31;;;;;;;10.10;6.07;;;15.30;99.90;;;;;;4999676;28;20049;-68
2023/10/07 04:54:58;;;;;;;12.75;6.80;;;15.30;99.90;;;;;;5009614;28;20052;-68
2023/10/07 04:57:44;;;;;;;11.10;7.22;;;15.40;99.90;;;;;;5006633;28;20029;-69
2023/10/07 05:03:15;;;;;;;9.80;5.70;;;15.40;99.90;;;;;;4986410;28;20034;-67
2023/10/07 05:05:45;;;;;;;9.95;6.43;;;15.50;99.90;;;;;;5009506;28;20042;-68
2023/10/07 05:08:17;;;;;;;10.10;5.00;;;15.50;99.90;;;;;;5007329;28;20095;-68
2023/10/07 05:10:50;;;;;;;10.85;5.63;;;15.50;99.90;;;;;;5005657;28;20100;-68
2023/10/07 05:13:16;;;;;;;8.88;5.47;;;15.50;99.90;;;;;;4995340;28;20057;-68
2023/10/07 05:15:41;;;;;;;10.32;5.88;;;15.50;99.90;;;;;;5000057;28;20084;-67
2023/10/07 05:18:07;;;;;;;10.15;5.45;;;15.50;99.90;;;;;;5003691;28;20427;-67
2023/10/07 05:20:37;;;;;;;8.23;5.47;;;15.50;99.90;;;;;;5005746;28;20105;-69
2023/10/07 05:23:02;;;;;;;9.65;6.10;;;15.60;99.90;;;;;;5008521;28;20029;-69
2023/10/07 05:25:29;;;;;;;11.77;6.72;;;15.60;99.90;;;;;;4999749;28;20466;-67
2023/10/07 05:27:56;;;;;;;9.40;6.20;;;15.60;99.90;;;;;;4998976;28;20367;-70
2023/10/07 05:30:22;;;;;;;11.05;5.95;;;15.70;99.90;;;;;;4999239;28;20018;-68
2023/10/07 05:32:48;;;;;;;9.80;5.93;;;15.60;99.90;;;;;;5006850;28;20133;-68
2023/10/07 05:35:15;;;;;;;14.20;6.60;;;15.70;99.90;;;;;;4996554;28;20141;-68
2023/10/07 05:37:42;;;;;;;10.00;6.10;;;15.70;99.90;;;;;;5013072;28;20037;-68
2023/10/07 05:40:08;;;;;;;10.38;6.55;;;15.70;99.90;;;;;;5007265;28;20034;-68
2023/10/07 05:42:33;;;;;;;13.98;7.25;;;15.70;99.90;;;;;;5011721;28;20084;-68
2023/10/07 05:44:59;;;;;;;13.23;6.93;;;15.70;99.90;;;;;;5005597;28;20398;-68
2023/10/07 05:47:25;;;;;;;12.55;7.20;;;15.70;99.90;;;;;;4998123;28;20026;-68
2023/10/07 05:49:55;;;;;;;12.13;7.05;;;15.70;99.90;;;;;;5004260;28;20431;-68
2023/10/07 05:52:21;;;;;;;15.97;7.03;;;15.70;99.90;;;;;;5005489;28;20486;-69
2023/10/07 05:54:46;;;;;;;15.63;7.00;;;15.70;99.90;;;;;;5006114;28;20116;-69
2023/10/07 05:57:13;;;;;;;14.32;6.65;;;15.70;99.90;;;;;;5013546;28;20088;-70
2023/10/07 05:59:42;;;;;;;14.02;7.63;;;15.70;99.90;;;;;;5004539;28;20514;-68
2023/10/07 06:02:12;;;;;;;14.88;7.22;;;15.70;99.90;;;;;;5010606;28;20030;-68
2023/10/07 06:04:39;;;;;;;10.95;7.40;;;15.80;99.90;;;;;;5011926;28;20542;-68
2023/10/07 06:07:06;;;;;;;14.68;8.23;;;15.70;99.90;;;;;;5010746;28;20036;-68
2023/10/07 06:09:31;;;;;;;14.65;7.95;;;15.70;99.90;;;;;;5006758;28;20029;-69
2023/10/07 06:11:57;;;;;;;18.80;8.13;;;15.70;99.90;;;;;;5010745;28;20034;-68
2023/10/07 06:14:24;;;;;;;14.63;8.05;;;15.70;99.90;;;;;;5006840;28;20026;-68
2023/10/07 06:16:52;;;;;;;17.35;8.65;;;15.70;99.90;;;;;;5012971;28;20037;-68
2023/10/07 06:19:18;;;;;;;17.02;8.43;;;15.70;99.90;;;;;;5006920;28;20023;-68
2023/10/07 06:21:56;;;;;;;14.48;8.50;;;15.70;99.90;;;;;;5002469;28;20036;-68
2023/10/07 06:24:21;;;;;;;17.73;9.10;;;15.70;99.90;;;;;;5005219;28;20030;-68
2023/10/07 06:26:53;;;;;;;16.17;9.45;;;15.70;99.90;;;;;;5003216;28;20104;-70
2023/10/07 06:29:19;;;;;;;19.13;10.45;;;15.70;99.90;;;;;;5002040;28;20399;-68
2023/10/07 06:31:55;;;;;;;16.17;9.07;;;15.70;99.90;;;;;;5007707;28;20030;-69
2023/10/07 06:34:25;;;;;;;15.55;8.85;;;15.70;99.90;;;;;;5005382;28;20505;-69
2023/10/07 06:36:52;;;;;;;16.75;10.05;;;15.70;99.90;;;;;;5003983;28;20038;-69
2023/10/07 06:39:19;;;;;;;18.75;9.25;;;15.70;99.90;;;;;;5005115;28;20065;-68
2023/10/07 06:41:44;;;;;;;19.05;9.70;;;15.70;99.90;;;;;;5012605;28;20037;-69
2023/10/07 06:44:10;;;;;;;16.77;9.05;;;15.70;99.90;;;;;;5004178;28;20104;-68
2023/10/07 06:46:41;;;;;;;15.32;9.63;;;15.70;99.90;;;;;;5004338;28;20030;-69
2023/10/07 06:49:15;;;;;;;17.35;10.38;;;15.70;99.90;;;;;;5004862;28;20498;-69
2023/10/07 06:51:41;;;;;;;19.73;10.63;;;15.70;99.90;;;;;;5003408;28;20503;-68
2023/10/07 06:54:07;;;;;;;19.83;12.02;;;15.70;99.90;;;;;;5003107;28;20061;-69
2023/10/07 06:56:33;;;;;;;19.20;11.50;;;15.70;99.90;;;;;;5007887;28;20125;-68
2023/10/07 06:59:03;;;;;;;20.80;11.68;;;15.70;99.90;;;;;;5000447;28;20040;-68
2023/10/07 07:01:51;;;;;;;19.50;11.65;;;15.70;99.90;;;;;;5009843;28;20053;-68
2023/10/07 07:04:19;;;;;;;20.52;12.00;;;15.70;99.90;;;;;;5011691;28;20032;-68
2023/10/07 07:06:46;;;;;;;21.90;12.50;;;15.70;99.90;;;;;;5009831;28;20034;-69
2023/10/07 07:12:09;;;;;;;27.20;13.55;;;15.80;99.90;;;;;;5003092;28;20038;-69
2023/10/07 07:14:34;;;;;;;25.90;12.88;;;15.70;99.90;;;;;;4999981;28;20030;-69
2023/10/07 07:22:45;;;;;;;23.70;13.77;;;15.80;99.90;;;;;;5002525;28;20303;-69
2023/10/07 07:25:22;;;;;;;25.25;13.57;;;15.80;99.90;;;;;;5001538;28;20046;-71
2023/10/07 07:27:49;;;;;;;24.92;14.25;;;15.80;99.90;;;;;;5000945;28;20072;-68
2023/10/07 07:30:31;;;;;;;22.52;12.82;;;15.80;99.90;;;;;;5003316;28;20393;-69
2023/10/07 07:33:06;;;;;;;24.95;12.95;;;15.80;99.90;;;;;;5011617;28;20038;-69
2023/10/07 07:35:39;;;;;;;27.38;13.35;;;15.80;99.90;;;;;;4999788;28;20475;-69
2023/10/07 07:38:53;;;;;;;23.15;12.25;;;15.80;99.90;;;;;;5004895;28;20040;-70
2023/10/07 07:41:05;;;;;;;21.75;12.38;;;15.80;99.90;;;;;;4982664;28;20037;-70
2023/10/07 07:43:33;;;;;;;25.50;12.93;;;15.80;99.90;;;;;;5004583;28;20485;-68
2023/10/07 07:48:43;;;;;;;24.50;12.25;;;15.90;99.90;;;;;;5007207;28;20056;-71
2023/10/07 07:51:09;;;;;;;25.00;11.88;;;15.90;99.90;;;;;;5015148;28;20115;-70
2023/10/07 07:53:35;;;;;;;19.25;12.25;;;15.90;99.90;;;;;;5002994;28;20221;-69
2023/10/07 07:56:01;;;;;;;23.45;12.85;;;15.90;99.90;;;;;;5010382;28;20120;-69
2023/10/07 07:58:26;;;;;;;28.95;13.02;;;15.90;99.90;;;;;;4998496;28;20030;-69
2023/10/07 08:00:58;;;;;;;26.13;12.75;;;15.90;99.90;;;;;;5006944;28;20029;-69
2023/10/07 08:03:27;;;;;;;26.02;13.32;;;16.00;99.90;;;;;;5011737;28;20033;-71
2023/10/07 08:05:54;;;;;;;22.38;11.52;;;15.90;99.90;;;;;;5008203;28;20061;-69
2023/10/07 08:08:24;;;;;;;20.27;11.95;;;15.90;99.90;;;;;;5002954;28;20026;-70
2023/10/07 08:10:54;;;;;;;20.73;11.65;;;15.90;99.90;;;;;;5007422;28;20049;-69
2023/10/07 08:13:23;;;;;;;18.33;11.13;;;15.90;99.90;;;;;;5004774;28;20075;-70
2023/10/07 08:15:53;;;;;;;23.35;11.68;;;15.80;99.90;;;;;;5003551;28;20038;-68
2023/10/07 08:18:31;;;;;;;21.08;11.43;;;15.80;99.90;;;;;;5004829;28;20056;-69
2023/10/07 08:21:06;;;;;;;20.77;10.60;;;15.90;99.90;;;;;;5010077;28;20427;-68
2023/10/07 08:23:36;;;;;;;21.00;11.95;;;15.80;99.90;;;;;;5009456;28;20438;-72
2023/10/07 08:26:10;;;;;;;19.30;11.65;;;15.90;99.90;;;;;;5000310;28;20117;-69
2023/10/07 08:28:58;;;;;;;20.60;11.30;;;16.00;99.90;;;;;;5006698;28;20105;-68
2023/10/07 08:31:43;;;;;;;18.00;10.57;;;16.00;99.90;;;;;;5001847;28;20036;-73
2023/10/07 08:36:38;;;;;;;19.95;9.85;;;16.00;99.90;;;;;;5005295;28;20128;-70
2023/10/07 08:39:10;;;;;;;13.75;7.97;;;16.00;99.90;;;;;;5005312;28;20037;-70
2023/10/07 08:41:40;;;;;;;19.75;8.88;;;16.00;99.90;;;;;;4980801;28;20054;-70
2023/10/07 08:44:13;;;;;;;13.52;8.25;;;16.00;99.90;;;;;;4990569;28;20062;-70
2023/10/07 08:46:52;;;;;;;15.65;8.52;;;16.00;99.90;;;;;;5012547;28;20018;-69
2023/10/07 08:49:25;;;;;;;16.42;8.63;;;16.00;99.90;;;;;;5006350;28;20473;-69
2023/10/07 08:51:52;;;;;;;14.98;8.73;;;16.00;99.90;;;;;;5006248;28;20045;-69
2023/10/07 08:54:18;;;;;;;14.43;8.80;;;16.00;99.90;;;;;;5000702;28;20107;-70
2023/10/07 08:56:54;;;;;;;13.77;8.35;;;16.00;99.90;;;;;;5008917;28;20029;-72
2023/10/07 08:59:30;;;;;;;14.07;8.15;;;16.00;99.90;;;;;;5000507;28;20030;-70
2023/10/07 09:02:00;;;;;;;13.00;7.93;;;16.00;99.90;;;;;;4999108;28;20515;-69
2023/10/07 09:04:32;;;;;;;13.63;8.02;;;16.00;99.90;;;;;;4994017;28;20034;-69
2023/10/07 09:06:59;;;;;;;14.02;7.70;;;16.00;99.90;;;;;;5002369;28;20463;-69
2023/10/07 09:09:54;;;;;;;12.38;7.82;;;16.00;99.90;;;;;;5004386;28;20029;-69
2023/10/07 09:12:29;;;;;;;13.85;7.07;;;16.10;99.90;;;;;;5006328;28;20378;-69
2023/10/07 09:14:57;;;;;;;13.93;8.10;;;16.10;99.90;;;;;;5003178;28;20026;-69
2023/10/07 09:17:26;;;;;;;15.75;8.18;;;16.10;99.90;;;;;;5007374;28;20367;-69
2023/10/07 09:19:53;;;;;;;14.27;7.22;;;16.10;99.90;;;;;;5009978;28;20030;-70
2023/10/07 09:22:24;;;;;;;13.43;7.88;;;16.10;99.90;;;;;;5006012;28;20092;-69
2023/10/07 09:24:54;;;;;;;15.48;6.53;;;16.10;99.90;;;;;;5006648;28;20062;-70
2023/10/07 09:27:36;;;;;;;11.80;6.47;;;16.10;99.90;;;;;;5009244;28;20109;-68
2023/10/07 09:30:34;;;;;;;12.45;6.70;;;16.10;99.90;;;;;;5002037;28;20052;-72
2023/10/07 09:32:55;;;;;;;13.52;6.57;;;16.10;99.90;;;;;;5004718;28;20343;-69
2023/10/07 09:35:22;;;;;;;11.10;6.13;;;16.10;99.90;;;;;;5007136;28;20077;-69
2023/10/07 09:37:53;;;;;;;9.60;6.32;;;16.10;99.90;;;;;;5007610;28;20064;-69
2023/10/07 09:40:53;;;;;;;;;;;16.10;99.90;;;;;;4978786;28;20123;-68
2023/10/07 09:43:07;;;;;;;9.07;5.68;;;16.10;99.90;;;;;;5008807;28;19902;-69
2023/10/07 09:45:34;;;;;;;13.13;6.68;;;16.10;99.90;;;;;;5007039;28;20421;-69
2023/10/07 09:48:01;;;;;;;9.90;6.72;;;16.10;99.90;;;;;;5008114;28;20033;-69
2023/10/07 09:50:33;;;;;;;11.15;6.30;;;16.10;99.90;;;;;;5004680;28;20034;-69
2023/10/07 09:53:44;;;;;;;10.43;6.70;;;16.10;99.90;;;;;;4997806;28;20407;-68
2023/10/07 09:56:22;;;;;;;;;;;16.10;99.90;;;;;;5004227;28;20625;-69
2023/10/07 09:59:13;;;;;;;9.40;5.75;;;16.20;99.90;;;;;;5004618;28;19916;-69
2023/10/07 10:02:16;;;;;;;7.80;5.43;;;16.20;99.90;;;;;;5003767;28;20103;-69
2023/10/07 10:05:01;;;;;;;9.05;5.82;;;16.20;99.90;;;;;;5006760;28;20524;-69
2023/10/07 10:08:29;;;;;;;8.20;5.50;;;16.20;99.90;;;;;;5004648;28;20076;-69
2023/10/07 10:10:58;;;;;;;10.77;6.00;;;16.30;99.90;;;;;;4992874;28;20526;-68
2023/10/07 10:16:18;;;;;;;8.65;4.85;;;16.30;99.90;;;;;;4995298;28;20096;-69
2023/10/07 10:18:50;;;;;;;9.13;4.63;;;16.20;99.90;;;;;;5008131;28;20120;-70
2023/10/07 10:21:22;;;;;;;8.57;4.82;;;16.30;99.90;;;;;;5005103;28;20092;-69
2023/10/07 10:23:51;;;;;;;7.10;5.00;;;16.30;99.90;;;;;;5005796;28;20073;-69
2023/10/07 10:26:23;;;;;;;7.43;4.40;;;16.20;99.90;;;;;;5007686;28;20054;-70
2023/10/07 10:29:07;;;;;;;7.60;3.97;;;16.20;99.90;;;;;;5007313;28;20030;-71
2023/10/07 10:31:34;;;;;;;8.43;4.80;;;16.20;99.90;;;;;;5010545;28;20073;-69
2023/10/07 10:34:08;;;;;;;6.75;4.68;;;16.30;99.90;;;;;;5009958;28;20034;-71
2023/10/07 10:36:40;;;;;;;8.23;5.55;;;16.20;99.90;;;;;;5008942;28;20084;-69
2023/10/07 10:39:22;;;;;;;12.43;4.68;;;16.30;99.90;;;;;;4998595;28;20026;-68
2023/10/07 10:41:48;;;;;;;9.57;4.72;;;16.30;99.90;;;;;;4972625;28;20393;-70
2023/10/07 10:44:16;;;;;;;8.95;4.85;;;16.30;99.90;;;;;;5006726;28;20037;-69
2023/10/07 10:46:46;;;;;;;7.45;5.10;;;16.30;99.90;;;;;;5012038;28;20017;-69
2023/10/07 10:49:18;;;;;;;10.32;5.40;;;16.30;99.90;;;;;;5015549;28;20031;-69
2023/10/07 10:51:50;;;;;;;9.98;5.75;;;16.30;99.90;;;;;;5008861;28;20088;-71
2023/10/07 10:54:18;;;;;;;10.48;5.22;;;16.30;99.90;;;;;;5006903;28;20033;-69
2023/10/07 10:56:47;;;;;;;10.45;4.90;;;16.30;99.90;;;;;;5007025;28;20022;-69
2023/10/07 10:59:14;;;;;;;9.05;5.07;;;16.30;99.90;;;;;;5005883;28;20084;-69
2023/10/07 11:01:43;;;;;;;11.10;4.80;;;16.30;99.90;;;;;;5001864;28;20030;-69
2023/10/07 11:04:12;;;;;;;10.70;5.63;;;16.30;99.90;;;;;;4997374;28;20045;-69
2023/10/07 11:06:38;;;;;;;12.27;5.45;;;16.30;99.90;;;;;;5006554;28;20510;-70
2023/10/07 11:09:04;;;;;;;11.65;5.65;;;16.30;99.90;;;;;;5005408;28;20115;-71
2023/10/07 11:11:30;;;;;;;13.40;5.72;;;16.30;99.90;;;;;;5011130;28;20054;-69
2023/10/07 11:13:56;;;;;;;14.25;5.75;;;16.30;99.90;;;;;;4997991;28;20018;-69
2023/10/07 11:16:22;;;;;;;12.60;5.55;;;16.30;99.90;;;;;;5002257;28;20116;-70
2023/10/07 11:18:49;;;;;;;2.40;1.48;;;16.30;99.90;;;;;;5008845;28;20105;-70
2023/10/07 11:21:18;;;;;;;2.72;1.08;;;15.90;99.90;;;;;;5003730;28;20060;-70
2023/10/07 11:23:54;;;;;;;3.22;0.70;;;15.70;99.90;;;;;;5003273;28;20029;-69
2023/10/07 11:26:24;;;;;;;1.00;0.20;;;15.50;99.90;;;;;;5014762;28;20049;-70
2023/10/07 11:28:51;;;;;;;0.35;0.28;;;15.40;99.90;;;;;;5001638;28;20060;-70
2023/10/07 11:31:31;;;;;;;0.10;0.10;;;15.40;99.90;;;;;;5002359;28;20030;-69
2023/10/07 11:33:57;;;;;;;0.40;0.30;;;15.40;99.90;;;;;;5003951;28;20030;-70
2023/10/07 11:36:23;;;;;;;0.32;0.20;;;15.40;99.90;;;;;;5007472;28;20370;-69
2023/10/07 11:38:48;;;;;;;0.63;0.38;;;15.40;99.90;;;;;;5006107;28;20022;-69
2023/10/07 11:41:16;;;;;;;0.88;0.30;;;15.50;99.90;;;;;;4986697;28;20533;-69
2023/10/07 11:43:47;;;;;;;0.52;0.35;;;15.50;99.90;;;;;;5010098;28;20017;-72
2023/10/07 11:46:14;;;;;;;0.30;0.30;;;15.60;99.90;;;;;;5007778;28;20042;-69
2023/10/07 11:48:45;;;;;;;2.22;0.77;;;15.60;99.90;;;;;;5002605;28;20379;-70
2023/10/07 11:51:11;;;;;;;1.83;0.90;;;15.60;99.90;;;;;;4998404;28;20109;-69
2023/10/07 11:53:39;;;;;;;2.20;1.25;;;15.60;99.90;;;;;;5001924;28;20049;-70
2023/10/07 11:56:05;;;;;;;2.40;1.08;;;15.60;99.90;;;;;;5004052;28;20058;-70
2023/10/07 11:58:32;;;;;;;5.65;1.38;;;15.70;99.90;;;;;;5004806;28;20119;-69
2023/10/07 12:00:57;;;;;;;4.88;2.03;;;15.70;99.90;;;;;;5004903;28;20091;-69
2023/10/07 12:03:25;;;;;;;3.83;1.75;;;15.70;99.90;;;;;;5005404;28;20462;-70
2023/10/07 12:05:51;;;;;;;8.52;2.78;;;15.80;99.90;;;;;;4995506;28;20021;-69
2023/10/07 12:08:18;;;;;;;9.77;2.88;;;15.90;99.90;;;;;;4993816;28;20100;-69
2023/10/07 12:10:44;;;;;;;10.90;3.47;;;16.00;99.90;;;;;;5005369;28;20032;-69
2023/10/07 12:13:14;;;;;;;11.15;3.90;;;16.00;99.90;;;;;;5000993;28;20030;-69
2023/10/07 12:15:42;;;;;;;10.10;4.63;;;16.00;99.90;;;;;;5006766;28;20468;-69
2023/10/07 12:18:09;;;;;;;11.38;4.28;;;16.00;99.90;;;;;;5006798;28;20116;-72
2023/10/07 12:20:34;;;;;;;11.57;4.15;;;16.00;99.90;;;;;;5002350;28;20095;-69
2023/10/07 12:23:00;;;;;;;12.88;4.45;;;16.00;99.90;;;;;;5007243;28;20451;-70
2023/10/07 12:25:26;;;;;;;12.90;4.10;;;16.10;99.90;;;;;;5003753;28;20503;-70
2023/10/07 12:27:51;;;;;;;10.88;4.25;;;16.00;99.90;;;;;;5004661;28;20044;-70
2023/10/07 12:30:21;;;;;;;12.40;4.50;;;16.00;99.90;;;;;;5005247;28;20032;-69
2023/10/07 12:32:53;;;;;;;16.30;4.10;;;16.00;99.80;;;;;;5005744;28;20106;-70
2023/10/07 12:35:19;;;;;;;12.68;4.15;;;16.00;99.80;;;;;;5005200;28;20034;-69
2023/10/07 12:37:48;;;;;;;11.50;3.85;;;16.00;99.90;;;;;;5002895;28;20152;-70
2023/10/07 12:40:17;;;;;;;14.05;4.60;;;16.00;99.90;;;;;;4985062;28;20374;-69
2023/10/07 12:42:45;;;;;;;10.10;3.97;;;16.00;99.90;;;;;;5010189;28;20022;-71
2023/10/07 12:45:11;;;;;;;14.82;3.90;;;16.00;99.90;;;;;;5006012;28;20577;-70
2023/10/07 12:47:39;;;;;;;10.18;4.05;;;16.00;99.80;;;;;;5004815;28;20303;-71
2023/10/07 12:50:20;;;;;;;10.80;3.95;;;16.00;99.90;;;;;;5006650;28;20014;-70
2023/10/07 12:52:50;;;;;;;10.13;3.72;;;15.90;99.90;;;;;;5005599;28;20033;-69
2023/10/07 12:55:16;;;;;;;5.07;1.80;;;15.80;99.90;;;;;;5005744;28;20037;-70
2023/10/07 12:57:42;;;;;;;2.08;0.82;;;15.70;99.90;;;;;;5006963;28;20319;-71
2023/10/07 13:00:32;;;;;;;1.42;0.90;;;15.50;99.90;;;;;;5001475;28;20473;-70
2023/10/07 13:02:58;;;;;;;0.57;0.47;;;15.50;99.90;;;;;;5002829;28;20045;-70
2023/10/07 13:05:23;;;;;;;0.35;0.30;;;15.40;99.90;;;;;;5004640;28;20032;-70
2023/10/07 13:07:56;;;;;;;0.70;0.50;;;15.40;99.90;;;;;;5008023;28;20432;-69
2023/10/07 13:10:22;;;;;;;1.08;0.55;;;15.40;99.90;;;;;;5010256;28;20339;-70
2023/10/07 13:12:49;;;;;;;0.98;0.55;;;15.40;99.90;;;;;;5008387;28;20125;-69
2023/10/07 13:15:15;;;;;;;1.65;0.50;;;15.40;99.90;;;;;;5005886;28;20030;-69
2023/10/07 13:17:45;;;;;;;0.40;0.40;;;15.40;99.90;;;;;;5002338;28;20451;-69
2023/10/07 13:20:19;;;;;;;0.77;0.47;;;15.30;99.90;;;;;;5004062;28;20025;-70
2023/10/07 13:22:46;;;;;;;0.70;0.60;;;15.30;99.90;;;;;;5006880;28;20049;-73
2023/10/07 13:25:11;;;;;;;0.95;0.50;;;15.30;99.90;;;;;;5004620;28;20041;-69
2023/10/07 13:27:40;;;;;;;1.00;0.80;;;15.30;99.90;;;;;;5005021;28;20088;-69
2023/10/07 13:30:13;;;;;;;0.98;0.70;;;15.30;99.90;;;;;;5003336;28;20030;-70
2023/10/07 13:32:46;;;;;;;1.55;0.70;;;15.30;99.90;;;;;;5005611;28;20068;-69
2023/10/07 13:35:15;;;;;;;0.75;0.55;;;15.30;99.90;;;;;;5009941;28;20079;-69
2023/10/07 13:37:43;;;;;;;1.77;0.80;;;15.30;99.90;;;;;;5000966;28;20113;-70
2023/10/07 13:40:15;;;;;;;2.03;0.82;;;15.30;99.90;;;;;;4977302;28;20026;-72
2023/10/07 13:42:47;;;;;;;4.32;1.20;;;15.30;99.90;;;;;;4985196;28;20137;-68